Time;durP1;ratioP1;P1;durP2;ratioP2;P2;SDS_P1;SDS_P2;PMS_P1;PMS_P2;Temp;Humidity;BMP_temperature;BMP_pressure;BME280_temperature;BME280_humidity;BME280_pressure;Samples;Min_cycle;Max_cycle;Signal;HPM_P1;HPM_P2
2022/01/12 00:05:55;;;;;;;8.57;7.68;;;;;;;20.39;nan;101843.06;20385507;28;100088;-70
2022/01/12 00:15:55;;;;;;;8.27;7.38;;;;;;;20.34;nan;101842.47;20361464;28;100532;-70
2022/01/12 00:26:04;;;;;;;12.23;6.80;;;;;;;20.28;nan;101846.25;20362383;28;98738;-69
2022/01/12 00:36:05;;;;;;;7.93;7.13;;;;;;;20.26;nan;101858.63;20407606;28;101886;-69
2022/01/12 00:46:05;;;;;;;7.32;6.63;;;;;;;20.19;nan;101865.13;20364895;28;101417;-69
2022/01/12 00:56:06;;;;;;;7.35;6.65;;;;;;;20.15;nan;101869.69;20375632;28;102090;-69
2022/01/12 01:06:09;;;;;;;7.18;6.47;;;;;;;20.12;nan;101869.00;20359284;28;98975;-69
2022/01/12 01:26:10;;;;;;;5.90;5.28;;;;;;;20.06;nan;101866.66;20414215;28;99018;-68
2022/01/12 01:36:15;;;;;;;8.48;6.05;;;;;;;20.02;nan;101881.75;20406992;28;101906;-69
2022/01/12 01:56:35;;;;;;;6.57;5.30;;;;;;;19.98;nan;101896.81;20398853;28;98636;-69
2022/01/12 02:06:36;;;;;;;6.38;5.05;;;;;;;19.96;nan;101890.75;20391824;28;101215;-69
2022/01/12 02:16:50;;;;;;;5.82;5.22;;;;;;;19.96;nan;101893.41;20394913;28;101753;-70
2022/01/12 02:39:49;;;;;;;5.20;4.70;;;;;;;19.91;nan;101891.91;20343461;28;101422;-70
2022/01/12 02:58:09;;;;;;;4.95;4.13;;;;;;;19.88;nan;101894.69;20404992;28;101970;-70
2022/01/12 03:08:13;;;;;;;4.88;4.32;;;;;;;19.86;nan;101902.66;20412720;28;101513;-70
2022/01/12 03:18:19;;;;;;;4.95;4.07;;;;;;;19.83;nan;101903.66;20417967;28;98245;-70
2022/01/12 03:28:20;;;;;;;5.07;4.25;;;;;;;19.83;nan;101910.66;20426945;28;101581;-67
2022/01/12 03:38:21;;;;;;;5.78;4.20;;;;;;;19.82;nan;101928.22;20425426;28;97827;-69
2022/01/12 03:48:23;;;;;;;4.85;4.20;;;;;;;19.82;nan;101912.44;20418907;28;99424;-70
2022/01/12 03:58:24;;;;;;;4.03;3.63;;;;;;;19.82;nan;101916.81;20412851;28;98275;-69
2022/01/12 04:08:24;;;;;;;8.65;4.07;;;;;;;19.79;nan;101919.63;20411502;28;102870;-70
2022/01/12 04:18:26;;;;;;;4.30;3.65;;;;;;;19.78;nan;101913.50;20417835;28;103527;-70
2022/01/12 04:28:29;;;;;;;4.28;3.55;;;;;;;19.77;nan;101914.41;20418975;28;99570;-70
2022/01/12 04:38:33;;;;;;;4.23;3.43;;;;;;;19.78;nan;101918.75;20413801;28;105922;-69
2022/01/12 04:49:19;;;;;;;4.45;3.78;;;;;;;19.78;nan;101923.16;20408720;28;101661;-69
2022/01/12 04:58:57;;;;;;;7.20;3.63;;;;;;;19.76;nan;101935.50;20418009;28;101634;-70
2022/01/12 05:19:33;;;;;;;4.43;3.28;;;;;;;19.96;nan;101956.50;20417995;28;99916;-69
2022/01/12 05:29:33;;;;;;;8.25;3.38;;;;;;;20.22;nan;101956.19;20412952;28;97954;-68
2022/01/12 05:39:34;;;;;;;9.05;3.72;;;;;;;20.37;nan;101947.53;20417043;28;102703;-69
2022/01/12 05:49:35;;;;;;;8.25;3.58;;;;;;;20.42;nan;101963.09;20412744;28;103714;-69
2022/01/12 05:59:37;;;;;;;7.97;3.40;;;;;;;20.43;nan;101972.69;20424399;28;99499;-69
2022/01/12 06:09:37;;;;;;;7.95;4.03;;;;;;;20.50;nan;101989.03;20413026;28;99766;-69
2022/01/12 06:19:40;;;;;;;12.48;4.80;;;;;;;20.38;nan;102001.84;20385109;28;98188;-69
2022/01/12 06:29:51;;;;;;;12.77;4.70;;;;;;;20.38;nan;102006.28;20399437;28;97659;-69
2022/01/12 06:39:52;;;;;;;12.48;4.68;;;;;;;20.47;nan;102004.03;20422173;28;98138;-70
2022/01/12 06:49:55;;;;;;;10.90;4.77;;;;;;;20.58;nan;102016.69;20436830;28;99805;-69
2022/01/12 06:59:56;;;;;;;10.07;6.32;;;;;;;20.62;nan;102027.91;20421496;28;101437;-69
2022/01/12 07:09:56;;;;;;;7.73;5.40;;;;;;;20.67;nan;102032.97;20422236;28;97702;-68
2022/01/12 07:19:57;;;;;;;10.48;5.57;;;;;;;20.72;nan;102049.41;20421525;28;101124;-67
2022/01/12 07:30:00;;;;;;;7.85;5.40;;;;;;;20.77;nan;102058.75;20387938;28;101026;-68
2022/01/12 07:40:01;;;;;;;14.68;5.68;;;;;;;20.79;nan;102080.59;20358339;28;102131;-74
2022/01/12 07:50:04;;;;;;;8.38;5.78;;;;;;;20.82;nan;102082.22;20416674;28;98494;-71
2022/01/12 08:00:06;;;;;;;;;;;;;;;20.83;nan;102089.22;20422144;28;100249;-71
2022/01/12 08:10:09;;;;;;;9.10;5.93;;;;;;;20.91;nan;102088.81;20370351;28;99045;-70
2022/01/12 08:20:12;;;;;;;10.07;5.32;;;;;;;20.95;nan;102085.97;20419712;28;100895;-69
2022/01/12 08:30:18;;;;;;;9.45;6.00;;;;;;;20.95;nan;102114.94;20435120;28;98575;-69
2022/01/12 08:40:19;;;;;;;9.75;6.82;;;;;;;21.02;nan;102133.06;20440876;28;97956;-70
2022/01/12 08:50:20;;;;;;;8.93;5.70;;;;;;;21.04;nan;102124.16;20443156;28;97965;-70
2022/01/12 09:00:20;;;;;;;8.18;5.57;;;;;;;21.09;nan;102119.53;20447392;28;97532;-69
2022/01/12 09:10:22;;;;;;;7.85;5.90;;;;;;;21.10;nan;102120.38;20444495;28;97708;-70
2022/01/12 09:20:24;;;;;;;8.27;5.50;;;;;;;21.10;nan;102109.84;20441465;28;98800;-70
2022/01/12 09:30:26;;;;;;;6.88;5.10;;;;;;;21.11;nan;102114.19;20446649;28;97175;-69
2022/01/12 09:40:27;;;;;;;8.48;5.75;;;;;;;21.09;nan;102110.75;20443293;28;97591;-69
2022/01/12 09:50:28;;;;;;;6.97;5.07;;;;;;;21.11;nan;102125.56;20439238;28;97829;-69
2022/01/12 10:00:28;;;;;;;8.77;5.55;;;;;;;21.16;nan;102120.06;20372168;28;99197;-69
2022/01/12 10:10:29;;;;;;;8.40;5.93;;;;;;;21.20;nan;102119.00;20404176;28;97633;-69
2022/01/12 10:20:30;;;;;;;7.75;5.80;;;;;;;21.26;nan;102110.78;20356554;28;97480;-69
2022/01/12 10:30:32;;;;;;;9.45;6.53;;;;;;;21.33;nan;102115.75;20404813;28;98302;-69
2022/01/12 10:40:56;;;;;;;9.35;6.60;;;;;;;21.42;nan;102108.22;20433322;28;98445;-70
2022/01/12 10:50:58;;;;;;;8.15;6.10;;;;;;;21.53;nan;102112.09;20391023;28;98395;-69
2022/01/12 11:00:59;;;;;;;9.23;6.20;;;;;;;21.62;nan;102095.84;20373915;28;99240;-70
2022/01/12 11:11:00;;;;;;;8.82;6.35;;;;;;;21.69;nan;102091.06;20365816;28;99595;-69
2022/01/12 11:21:13;;;;;;;8.50;6.68;;;;;;;21.75;nan;102104.81;20411756;28;97400;-70
2022/01/12 11:31:22;;;;;;;;;;;;;;;21.80;nan;102098.41;20413412;28;98871;-69
2022/01/12 11:41:31;;;;;;;24.95;14.25;;;;;;;14.03;nan;102113.69;20408303;28;97929;-68
2022/01/12 11:51:34;;;;;;;24.05;11.63;;;;;;;17.65;nan;102093.56;20411539;28;98647;-69
2022/01/12 12:01:44;;;;;;;16.17;9.25;;;;;;;18.95;nan;102082.63;20398148;28;102065;-68
2022/01/12 12:11:51;;;;;;;17.52;9.50;;;;;;;19.77;nan;102076.53;20384536;28;99337;-68
2022/01/12 12:21:51;;;;;;;12.30;7.95;;;;;;;20.31;nan;102064.44;20404424;28;98934;-69
2022/01/12 12:31:53;;;;;;;14.05;8.13;;;;;;;20.73;nan;102073.00;20365193;28;98467;-69
2022/01/12 12:41:54;;;;;;;14.00;7.30;;;;;;;21.04;nan;102074.13;20428515;28;99946;-69
2022/01/12 12:52:04;;;;;;;10.50;6.95;;;;;;;21.32;nan;102075.34;20436709;28;98791;-70
2022/01/12 13:02:12;;;;;;;10.55;6.85;;;;;;;21.54;nan;102059.28;20430289;28;102473;-71
2022/01/12 13:12:13;;;;;;;11.25;6.75;;;;;;;21.68;nan;102055.09;20424967;28;102769;-71
2022/01/12 13:22:29;;;;;;;13.43;7.20;;;;;;;21.79;nan;102046.63;20428792;28;99896;-70
2022/01/12 13:32:30;;;;;;;10.18;6.68;;;;;;;21.82;nan;102062.28;20429217;28;98935;-69
2022/01/12 13:42:30;;;;;;;9.75;5.88;;;;;;;21.83;nan;102058.72;20433763;28;97555;-68
2022/01/12 13:52:31;;;;;;;9.60;6.30;;;;;;;21.80;nan;102062.38;20433814;28;98079;-69
2022/01/12 14:02:41;;;;;;;13.45;6.25;;;;;;;21.69;nan;102060.31;20429749;28;101617;-70
2022/01/12 14:12:50;;;;;;;13.85;6.47;;;;;;;21.59;nan;102067.84;20390173;28;102118;-68
2022/01/12 14:23:00;;;;;;;11.25;6.38;;;;;;;21.55;nan;102083.88;20358719;28;98185;-68
2022/01/12 14:33:01;;;;;;;9.68;5.85;;;;;;;21.48;nan;102072.78;20390913;28;101441;-68
2022/01/12 14:43:09;;;;;;;11.20;6.22;;;;;;;21.38;nan;102071.56;20358860;28;101352;-69
2022/01/12 14:53:11;;;;;;;12.50;6.15;;;;;;;21.35;nan;102092.78;20405769;28;97802;-68
2022/01/12 15:03:12;;;;;;;11.70;5.53;;;;;;;21.24;nan;102081.03;20404941;28;99408;-68
2022/01/12 15:13:18;;;;;;;11.48;5.80;;;;;;;21.12;nan;102084.28;20410351;28;102118;-69
2022/01/12 15:23:20;;;;;;;9.93;5.88;;;;;;;21.05;nan;102081.09;20435486;28;99134;-68
2022/01/12 15:33:20;;;;;;;10.55;6.15;;;;;;;20.99;nan;102106.91;20442001;28;99337;-67
2022/01/12 15:43:22;;;;;;;9.35;5.60;;;;;;;20.98;nan;102116.56;20436513;28;99597;-68
2022/01/12 15:53:22;;;;;;;13.57;5.10;;;;;;;20.94;nan;102117.66;20436307;28;98601;-68
2022/01/12 16:03:23;;;;;;;8.50;5.38;;;;;;;20.90;nan;102135.38;20435932;28;99142;-68
2022/01/12 16:13:25;;;;;;;9.88;5.53;;;;;;;20.88;nan;102131.97;20446742;28;102385;-68
2022/01/12 16:23:28;;;;;;;12.27;5.80;;;;;;;20.87;nan;102129.41;20436685;28;99004;-69
2022/01/12 16:33:32;;;;;;;9.02;5.32;;;;;;;20.76;nan;102106.22;20441324;28;98675;-69
2022/01/12 16:43:35;;;;;;;13.90;6.05;;;;;;;20.68;nan;102103.06;20429628;28;98770;-69
2022/01/12 16:53:40;;;;;;;8.50;5.60;;;;;;;20.75;nan;102115.91;20439192;28;97468;-68
2022/01/12 17:03:43;;;;;;;16.80;7.07;;;;;;;20.66;nan;102129.47;20430837;28;99394;-70
2022/01/12 17:13:47;;;;;;;14.90;7.50;;;;;;;20.68;nan;102137.28;20421360;28;101154;-70
2022/01/12 17:24:10;;;;;;;14.63;8.20;;;;;;;20.69;nan;102146.91;20414084;28;98140;-69
2022/01/12 17:34:16;;;;;;;19.80;8.10;;;;;;;20.83;nan;102159.47;20414388;28;98948;-71
2022/01/12 17:44:18;;;;;;;11.45;6.85;;;;;;;20.94;nan;102170.31;20417335;28;98416;-70
2022/01/12 17:54:24;;;;;;;12.88;7.40;;;;;;;21.01;nan;102169.09;20414570;28;97667;-69
2022/01/12 18:04:26;;;;;;;13.70;7.20;;;;;;;21.02;nan;102183.09;20426147;28;100567;-71
2022/01/12 18:14:28;;;;;;;14.30;7.67;;;;;;;20.99;nan;102185.91;20425200;28;102149;-70
2022/01/12 18:24:30;;;;;;;19.38;7.93;;;;;;;21.01;nan;102181.44;20431586;28;98616;-71
2022/01/12 18:34:32;;;;;;;21.77;11.57;;;;;;;21.08;nan;102202.13;20429023;28;97607;-71
2022/01/12 18:44:34;;;;;;;27.33;12.02;;;;;;;21.16;nan;102214.06;20422854;28;98123;-71
2022/01/12 18:54:36;;;;;;;27.20;11.52;;;;;;;21.15;nan;102213.19;20429647;28;101415;-70
2022/01/12 19:04:38;;;;;;;660.58;137.02;;;;;;;21.01;nan;102200.69;20424746;28;101759;-69
2022/01/12 19:14:44;;;;;;;550.43;149.10;;;;;;;20.89;nan;102198.66;20400173;28;101601;-69
2022/01/12 19:24:45;;;;;;;450.25;123.88;;;;;;;20.81;nan;102201.63;20401415;28;102689;-70
2022/01/12 19:34:49;;;;;;;403.75;115.40;;;;;;;20.87;nan;102216.28;20411667;28;98518;-70
2022/01/12 19:44:49;;;;;;;352.27;101.20;;;;;;;20.88;nan;102224.13;20412544;28;100087;-71
2022/01/12 19:55:03;;;;;;;321.83;93.80;;;;;;;20.86;nan;102210.19;20392832;28;98222;-71
2022/01/12 20:05:06;;;;;;;243.02;74.28;;;;;;;20.73;nan;102203.78;20399288;28;98490;-71
2022/01/12 20:15:08;;;;;;;222.00;71.33;;;;;;;20.81;nan;102204.25;20372375;28;99166;-70
2022/01/12 20:25:09;;;;;;;188.87;60.47;;;;;;;20.82;nan;102203.34;20401606;28;98932;-70
2022/01/12 20:35:11;;;;;;;177.57;57.05;;;;;;;20.79;nan;102220.16;20398798;28;99498;-69
2022/01/12 20:45:13;;;;;;;151.93;53.77;;;;;;;20.73;nan;102222.22;20435913;28;98146;-69
2022/01/12 20:55:13;;;;;;;145.95;51.53;;;;;;;20.68;nan;102221.53;20439740;28;101356;-69
2022/01/12 21:05:14;;;;;;;129.35;48.05;;;;;;;20.64;nan;102229.56;20417589;28;99074;-69
2022/01/12 21:15:14;;;;;;;130.65;46.85;;;;;;;20.63;nan;102234.91;20417718;28;98632;-69
2022/01/12 21:25:16;;;;;;;107.85;42.78;;;;;;;20.60;nan;102232.41;20369342;28;99465;-70
2022/01/12 21:35:23;;;;;;;99.63;39.97;;;;;;;20.55;nan;102240.50;20354903;28;98616;-70
2022/01/12 21:45:23;;;;;;;108.80;40.08;;;;;;;20.50;nan;102236.41;20365015;28;98979;-70
2022/01/12 21:55:26;;;;;;;93.80;37.15;;;;;;;20.45;nan;102247.97;20378607;28;99527;-70
2022/01/12 22:05:26;;;;;;;84.82;35.42;;;;;;;20.39;nan;102234.25;20417134;28;101979;-70
2022/01/12 22:15:27;;;;;;;75.65;32.58;;;;;;;20.36;nan;102255.41;20415157;28;97888;-70
2022/01/12 22:25:27;;;;;;;73.68;32.33;;;;;;;20.31;nan;102260.88;20425729;28;101332;-70
2022/01/12 22:35:28;;;;;;;70.18;30.17;;;;;;;20.27;nan;102260.16;20383766;28;102196;-70
2022/01/12 22:45:36;;;;;;;68.68;29.77;;;;;;;20.33;nan;102274.00;20368152;28;103263;-72
2022/01/12 22:55:37;;;;;;;62.88;28.65;;;;;;;20.33;nan;102285.34;20391204;28;101421;-70
2022/01/12 23:05:40;;;;;;;54.25;26.60;;;;;;;20.28;nan;102287.34;20379060;28;101715;-71
2022/01/12 23:15:43;;;;;;;57.58;25.48;;;;;;;20.22;nan;102284.97;20407959;28;101254;-70
2022/01/12 23:25:44;;;;;;;49.03;24.23;;;;;;;20.15;nan;102287.88;20347913;28;100935;-71
